D/T METAR WX W/DIR W/SPE G/SPE TEMP DEWP
22/01/20 06:50 EGCN 220650Z 32004KT 8000 MIFG NSC 04/04 Q1038 MIFG NW (320°) 4.6mph 4°C 4°C
22/01/20 06:20 EGCN 220620Z 31005KT 1800 BR NSC 04/04 Q1038 BR NW (310°) 5.8mph 4°C 4°C
22/01/20 05:50 EGCN 220550Z 30003KT 0400 FG NSC 03/03 Q1038 FG WNW (300°) 3.5mph 3°C 3°C
22/01/20 05:20 EGCN 220520Z 31003KT 0500 FG NSC 04/04 Q1038 FG NW (310°) 3.5mph 4°C 4°C
22/01/20 04:50 EGCN 220450Z 30003KT 1400 MIFG NSC 05/05 Q1038 MIFG WNW (300°) 3.5mph 5°C 5°C
22/01/20 03:50 EGCN 220350Z VRB02KT 9999 BKN005 06/06 Q1038 N (0°) 2.3mph 6°C 6°C
22/01/20 03:20 EGCN 220320Z AUTO 26004KT 9999 SCT005/// 06/06 Q1038 W (260°) 4.6mph 6°C 6°C
22/01/20 02:50 EGCN 220250Z AUTO 28005KT 9999 NCD 06/06 Q1038 W (280°) 5.8mph 6°C 6°C
22/01/20 02:20 EGCN 220220Z AUTO 28006KT 9999 NCD 07/06 Q1038 W (280°) 6.9mph 7°C 6°C
22/01/20 01:50 EGCN 220150Z 29006KT CAVOK 06/06 Q1038 WNW (290°) 6.9mph 6°C 6°C
22/01/20 01:20 EGCN 220120Z 30007KT CAVOK 07/06 Q1038 WNW (300°) 8.1mph 7°C 6°C
22/01/20 00:50 EGCN 220050Z 30007KT CAVOK 07/06 Q1039 WNW (300°) 8.1mph 7°C 6°C
22/01/20 00:20 EGCN 220020Z 30008KT CAVOK 07/06 Q1039 WNW (300°) 9.2mph 7°C 6°C
21/01/20 23:50 EGCN 212350Z 30008KT CAVOK 07/06 Q1039 WNW (300°) 9.2mph 7°C 6°C
21/01/20 23:20 EGCN 212320Z 30008KT CAVOK 07/06 Q1039 WNW (300°) 9.2mph 7°C 6°C
21/01/20 22:50 EGCN 212250Z 29008KT CAVOK 08/07 Q1039 WNW (290°) 9.2mph 8°C 7°C
21/01/20 22:20 EGCN 212220Z 29007KT 9999 FEW045 08/07 Q1039 WNW (290°) 8.1mph 8°C 7°C
21/01/20 21:50 EGCN 212150Z 29005KT 9999 SCT045 07/06 Q1039 WNW (290°) 5.8mph 7°C 6°C
21/01/20 21:20 EGCN 212120Z 29004KT 9999 BKN046 07/06 Q1039 WNW (290°) 4.6mph 7°C 6°C
21/01/20 20:50 EGCN 212050Z 29004KT CAVOK 06/05 Q1039 WNW (290°) 4.6mph 6°C 5°C
21/01/20 20:20 EGCN 212020Z 29005KT CAVOK 07/06 Q1039 WNW (290°) 5.8mph 7°C 6°C
21/01/20 19:50 EGCN 211950Z 31006KT 9999 SCT008 07/06 Q1040 NW (310°) 6.9mph 7°C 6°C
21/01/20 19:20 EGCN 211920Z 31004KT 9999 SCT008 06/05 Q1040 NW (310°) 4.6mph 6°C 5°C
21/01/20 18:50 EGCN 211850Z 31009KT 9999 OVC008 08/06 Q1039 NW (310°) 10.4mph 8°C 6°C
21/01/20 18:20 EGCN 211820Z 31009KT 9999 OVC008 08/06 Q1039 NW (310°) 10.4mph 8°C 6°C
21/01/20 17:50 EGCN 211750Z 30009KT 9999 OVC009 08/06 Q1039 WNW (300°) 10.4mph 8°C 6°C
21/01/20 17:20 EGCN 211720Z 30007KT 9999 OVC010 08/06 Q1039 WNW (300°) 8.1mph 8°C 6°C
21/01/20 16:50 EGCN 211650Z 31010KT 9999 BKN012 08/06 Q1039 NW (310°) 11.5mph 8°C 6°C
21/01/20 16:20 EGCN 211620Z 31007KT 9999 SCT010 08/06 Q1040 NW (310°) 8.1mph 8°C 6°C
21/01/20 15:50 EGCN 211550Z 30009KT CAVOK 08/06 Q1039 WNW (300°) 10.4mph 8°C 6°C
21/01/20 15:20 EGCN 211520Z 30006KT CAVOK 09/06 Q1039 WNW (300°) 6.9mph 9°C 6°C
21/01/20 14:50 EGCN 211450Z 28007KT 240V310 CAVOK 09/06 Q1040 W (280°) 8.1mph 9°C 6°C
21/01/20 14:20 EGCN 211420Z 30006KT CAVOK 10/06 Q1040 WNW (300°) 6.9mph 10°C 6°C
21/01/20 13:50 EGCN 211350Z 29006KT 270V330 CAVOK 10/06 Q1040 WNW (290°) 6.9mph 10°C 6°C
21/01/20 12:50 EGCN 211250Z 27004KT CAVOK 09/05 Q1041 W (270°) 4.6mph 9°C 5°C
21/01/20 12:20 EGCN 211220Z 26004KT 230V320 CAVOK 09/05 Q1041 W (260°) 4.6mph 9°C 5°C
21/01/20 11:50 EGCN 211150Z 21005KT CAVOK 08/04 Q1041 SSW (210°) 5.8mph 8°C 4°C
21/01/20 11:20 EGCN 211120Z 19006KT CAVOK 07/04 Q1041 S (190°) 6.9mph 7°C 4°C
21/01/20 10:50 EGCN 211050Z 18005KT CAVOK 06/04 Q1042 S (180°) 5.8mph 6°C 4°C
21/01/20 10:20 EGCN 211020Z 18005KT CAVOK 05/03 Q1042 S (180°) 5.8mph 5°C 3°C
21/01/20 09:50 EGCN 210950Z 19004KT 9999 FEW027 04/02 Q1042 S (190°) 4.6mph 4°C 2°C
21/01/20 09:20 EGCN 210920Z 19004KT 9999 SCT027 03/02 Q1042 S (190°) 4.6mph 3°C 2°C
21/01/20 08:50 EGCN 210850Z 22004KT 9999 SCT026 02/01 Q1042 SW (220°) 4.6mph 2°C 1°C
21/01/20 08:20 EGCN 210820Z 21006KT CAVOK 01/01 Q1041 SSW (210°) 6.9mph 1°C 1°C
21/01/20 07:50 EGCN 210750Z 21006KT CAVOK 01/00 Q1041 SSW (210°) 6.9mph 1°C 0°C
21/01/20 07:20 EGCN 210720Z 21007KT CAVOK 01/01 Q1041 SSW (210°) 8.1mph 1°C 1°C
21/01/20 06:50 EGCN 210650Z 20007KT CAVOK 01/00 Q1041 SSW (200°) 8.1mph 1°C 0°C
21/01/20 06:20 EGCN 210620Z 22007KT 9999 SCT023 03/01 Q1041 SW (220°) 8.1mph 3°C 1°C